Time;durP1;ratioP1;P1;durP2;ratioP2;P2;SDS_P1;SDS_P2;PMS_P1;PMS_P2;Temp;Humidity;BMP_temperature;BMP_pressure;BME280_temperature;BME280_humidity;BME280_pressure;Samples;Min_cycle;Max_cycle;Signal;HPM_P1;HPM_P2
2021/01/02 00:01:04;;;;;;;18.23;10.48;;;6.10;85.90;;;;;;4977146;28;20093;-85
2021/01/02 00:03:51;;;;;;;13.88;8.60;;;6.10;85.90;;;;;;4974224;28;20019;-86
2021/01/02 00:06:32;;;;;;;16.42;8.73;;;6.10;86.00;;;;;;4980725;28;20026;-85
2021/01/02 00:09:10;;;;;;;12.35;7.30;;;6.10;86.00;;;;;;4990364;28;20487;-85
2021/01/02 00:12:02;;;;;;;17.45;9.80;;;6.10;86.00;;;;;;4983648;28;20072;-85
2021/01/02 00:14:30;;;;;;;15.02;7.15;;;6.10;86.00;;;;;;4976028;28;20034;-85
2021/01/02 00:17:21;;;;;;;13.70;7.53;;;6.10;85.90;;;;;;4977990;28;20042;-85
2021/01/02 00:20:05;;;;;;;13.07;7.03;;;6.10;85.90;;;;;;4989336;28;20038;-85
2021/01/02 00:22:52;;;;;;;14.30;8.23;;;6.20;86.00;;;;;;4972148;28;20033;-85
2021/01/02 00:25:21;;;;;;;16.60;10.45;;;6.20;85.90;;;;;;4979204;28;20093;-86
2021/01/02 00:28:08;;;;;;;13.68;7.88;;;6.20;86.00;;;;;;4972754;28;20050;-85
2021/01/02 00:30:57;;;;;;;13.80;7.50;;;6.20;85.70;;;;;;4983147;28;20065;-85
2021/01/02 00:33:57;;;;;;;12.93;7.30;;;6.20;85.60;;;;;;4973215;28;20027;-85
2021/01/02 00:36:53;;;;;;;16.05;8.95;;;6.20;85.70;;;;;;4981246;28;20044;-86
2021/01/02 00:39:51;;;;;;;18.25;9.75;;;6.10;85.70;;;;;;4988328;28;20258;-85
2021/01/02 00:42:18;;;;;;;16.45;8.88;;;6.10;85.70;;;;;;4971202;28;20047;-85
2021/01/02 00:44:46;;;;;;;13.82;8.35;;;6.10;85.70;;;;;;4977730;28;20096;-86
2021/01/02 00:47:14;;;;;;;14.93;9.65;;;6.10;85.70;;;;;;4978810;28;20057;-85
2021/01/02 00:49:42;;;;;;;15.80;9.18;;;6.10;85.60;;;;;;4981763;28;20019;-85
2021/01/02 00:52:22;;;;;;;20.60;12.25;;;6.10;85.60;;;;;;4976857;28;20033;-85
2021/01/02 00:55:20;;;;;;;17.15;9.98;;;6.10;85.60;;;;;;4987967;28;20138;-85
2021/01/02 00:57:49;;;;;;;16.98;9.95;;;6.10;85.70;;;;;;4983283;28;20026;-86
2021/01/02 01:00:17;;;;;;;16.38;9.57;;;6.10;85.60;;;;;;4976645;28;20018;-85
2021/01/02 01:02:57;;;;;;;13.13;8.07;;;6.10;85.70;;;;;;4989360;28;20117;-85
2021/01/02 01:05:23;;;;;;;22.38;14.60;;;6.10;85.70;;;;;;4988473;28;20527;-85
2021/01/02 01:07:54;;;;;;;20.83;12.32;;;6.10;85.70;;;;;;4971136;28;20700;-85
2021/01/02 01:10:31;;;;;;;14.73;8.88;;;6.00;85.70;;;;;;4971307;28;20089;-86
2021/01/02 01:13:03;;;;;;;15.88;10.00;;;6.00;85.80;;;;;;4979043;28;20395;-86
2021/01/02 01:15:28;;;;;;;14.63;9.45;;;6.00;85.80;;;;;;4986125;28;20128;-86
2021/01/02 01:18:18;;;;;;;20.73;11.70;;;6.00;85.80;;;;;;4988831;28;20113;-85
2021/01/02 01:20:58;;;;;;;22.85;13.07;;;6.00;85.80;;;;;;4983334;28;20030;-84
2021/01/02 01:23:49;;;;;;;18.60;11.07;;;5.90;85.70;;;;;;4982523;28;20062;-86
2021/01/02 01:27:00;;;;;;;17.25;9.82;;;5.90;85.80;;;;;;4988347;28;20118;-87
2021/01/02 01:29:30;;;;;;;22.90;14.13;;;6.00;85.90;;;;;;4971273;28;20043;-86
2021/01/02 01:31:57;;;;;;;16.70;9.40;;;5.90;85.80;;;;;;4989769;28;20117;-86
2021/01/02 01:34:26;;;;;;;18.20;11.35;;;5.90;85.90;;;;;;4984885;28;20112;-86
2021/01/02 01:36:52;;;;;;;12.57;8.00;;;5.90;85.80;;;;;;4981543;28;20061;-87
2021/01/02 01:39:22;;;;;;;18.20;10.23;;;5.90;85.80;;;;;;4984446;28;20030;-85
2021/01/02 01:41:54;;;;;;;17.85;11.20;;;5.90;85.80;;;;;;4975456;28;20054;-86
2021/01/02 01:44:56;;;;;;;21.45;12.35;;;5.90;85.90;;;;;;4980602;28;20033;-86
2021/01/02 01:47:40;;;;;;;24.10;13.97;;;5.90;85.90;;;;;;4985640;28;20030;-86
2021/01/02 01:50:11;;;;;;;23.38;14.32;;;5.80;85.80;;;;;;4986566;28;20277;-87
2021/01/02 01:53:11;;;;;;;20.10;11.85;;;5.80;85.80;;;;;;4976836;28;20046;-86
2021/01/02 01:55:56;;;;;;;16.05;9.85;;;5.80;85.90;;;;;;4983957;28;20564;-84
2021/01/02 01:58:42;;;;;;;16.17;11.05;;;5.80;85.90;;;;;;4976236;28;20163;-84
2021/01/02 02:01:08;;;;;;;22.55;13.73;;;5.80;85.90;;;;;;4990883;28;20178;-84
2021/01/02 02:03:47;;;;;;;18.42;10.73;;;5.80;85.80;;;;;;4976477;28;20023;-85
2021/01/02 02:06:24;;;;;;;14.52;9.05;;;5.80;85.90;;;;;;4980524;28;20042;-85
2021/01/02 02:09:20;;;;;;;18.15;10.98;;;5.80;85.90;;;;;;4979921;28;20074;-84
2021/01/02 02:11:58;;;;;;;16.58;10.65;;;5.80;86.00;;;;;;5002557;28;20388;-84
2021/01/02 02:14:58;;;;;;;18.45;10.40;;;5.80;86.00;;;;;;4986797;28;20062;-85
2021/01/02 02:17:26;;;;;;;19.52;11.20;;;5.70;85.90;;;;;;4983716;28;20040;-85
2021/01/02 02:19:57;;;;;;;19.10;12.55;;;5.70;85.90;;;;;;4974940;28;20192;-85
2021/01/02 02:22:24;;;;;;;20.80;12.57;;;5.70;85.90;;;;;;4975745;28;20086;-86
2021/01/02 02:24:52;;;;;;;16.67;10.65;;;5.80;85.90;;;;;;4984618;28;20553;-85
2021/01/02 02:27:27;;;;;;;15.50;10.13;;;5.70;85.80;;;;;;4974357;28;20033;-86
2021/01/02 02:30:25;;;;;;;15.00;9.40;;;5.70;85.80;;;;;;4983518;28;20514;-86
2021/01/02 02:32:51;;;;;;;16.63;9.85;;;5.70;85.80;;;;;;4974915;28;20038;-85
2021/01/02 02:35:21;;;;;;;14.48;9.32;;;5.70;85.80;;;;;;4986598;28;20034;-84
2021/01/02 02:37:52;;;;;;;19.98;12.15;;;5.70;85.90;;;;;;4976027;28;20033;-85
2021/01/02 02:40:20;;;;;;;16.60;10.32;;;5.70;85.80;;;;;;4977278;28;20042;-84
2021/01/02 02:43:00;;;;;;;13.85;9.63;;;5.80;85.90;;;;;;4978159;28;20038;-85
2021/01/02 02:45:33;;;;;;;18.70;11.55;;;5.80;85.80;;;;;;4974897;28;20089;-85
2021/01/02 02:48:05;;;;;;;14.07;8.50;;;5.80;85.70;;;;;;4982979;28;20058;-86
2021/01/02 02:50:31;;;;;;;;;;;5.80;85.60;;;;;;4996583;28;20027;-85
2021/01/02 02:53:09;;;;;;;18.25;11.55;;;5.80;85.50;;;;;;4985353;28;20024;-86
2021/01/02 02:55:39;;;;;;;11.40;7.72;;;5.80;85.60;;;;;;4986587;28;20038;-86
2021/01/02 02:58:06;;;;;;;15.18;10.00;;;5.80;85.60;;;;;;4989568;28;20026;-86
2021/01/02 03:00:32;;;;;;;13.98;9.20;;;5.80;86.30;;;;;;4980341;28;20362;-85
2021/01/02 03:02:58;;;;;;;15.85;10.90;;;5.80;85.60;;;;;;4986922;28;20027;-86
2021/01/02 03:05:24;;;;;;;12.63;7.95;;;5.80;85.60;;;;;;4982968;28;20416;-85
2021/01/02 03:07:50;;;;;;;17.23;11.60;;;5.80;85.60;;;;;;4978069;28;20027;-85
2021/01/02 03:10:20;;;;;;;14.82;9.52;;;5.80;85.60;;;;;;4981109;28;20029;-86
2021/01/02 03:12:50;;;;;;;15.63;10.10;;;5.80;85.50;;;;;;4978284;28;20026;-86
2021/01/02 03:15:22;;;;;;;12.55;8.20;;;5.80;85.80;;;;;;4980988;28;20038;-86
2021/01/02 03:17:49;;;;;;;13.43;9.30;;;5.80;85.50;;;;;;4985395;28;20027;-86
2021/01/02 03:20:16;;;;;;;14.30;9.80;;;5.80;85.50;;;;;;4979309;28;20050;-86
2021/01/02 03:22:44;;;;;;;12.95;8.20;;;5.80;85.50;;;;;;4980319;28;20035;-86
2021/01/02 03:25:12;;;;;;;13.93;9.00;;;5.90;85.60;;;;;;4991777;28;20092;-86
2021/01/02 03:27:38;;;;;;;12.52;7.38;;;5.90;85.50;;;;;;4986270;28;20354;-86
2021/01/02 03:30:06;;;;;;;15.82;10.43;;;5.90;85.50;;;;;;4978995;28;20022;-86
2021/01/02 03:32:32;;;;;;;16.83;11.23;;;5.90;85.30;;;;;;4983236;28;20117;-86
2021/01/02 03:34:57;;;;;;;16.10;10.30;;;5.90;85.30;;;;;;4978494;28;20418;-86
2021/01/02 03:37:24;;;;;;;11.85;7.30;;;5.90;85.30;;;;;;4988693;28;20081;-85
2021/01/02 03:39:50;;;;;;;16.85;11.23;;;5.90;85.30;;;;;;4978385;28;20111;-85
2021/01/02 03:42:15;;;;;;;14.52;9.45;;;5.90;85.20;;;;;;5006224;28;20034;-85
2021/01/02 03:44:41;;;;;;;19.67;12.65;;;5.90;85.30;;;;;;4991296;28;20023;-85
2021/01/02 03:47:08;;;;;;;14.68;9.73;;;5.90;85.20;;;;;;4979808;28;20030;-85
2021/01/02 03:49:34;;;;;;;14.25;8.60;;;5.80;85.10;;;;;;4975388;28;20025;-86
2021/01/02 03:52:03;;;;;;;18.65;12.27;;;5.90;85.20;;;;;;4975034;28;20031;-85
2021/01/02 03:54:30;;;;;;;18.80;12.73;;;5.80;85.00;;;;;;4971740;28;20062;-85
2021/01/02 03:56:55;;;;;;;17.45;11.77;;;5.80;85.00;;;;;;4987337;28;20422;-85
2021/01/02 03:59:21;;;;;;;15.85;10.68;;;5.70;84.90;;;;;;4978327;28;20033;-85
2021/01/02 04:01:59;;;;;;;13.13;8.38;;;5.80;85.10;;;;;;4979916;28;20485;-86
2021/01/02 04:04:26;;;;;;;28.73;17.48;;;5.80;85.10;;;;;;4988280;28;20053;-86
2021/01/02 04:06:52;;;;;;;17.90;11.05;;;5.70;84.80;;;;;;4990257;28;20053;-85
2021/01/02 04:09:21;;;;;;;22.73;15.00;;;5.70;85.00;;;;;;4979471;28;20552;-85
2021/01/02 04:11:49;;;;;;;21.45;12.65;;;5.70;85.00;;;;;;4985291;28;20145;-85
2021/01/02 04:14:15;;;;;;;17.95;12.02;;;5.70;85.00;;;;;;4982093;28;20022;-85
2021/01/02 04:16:42;;;;;;;25.52;16.60;;;5.60;85.00;;;;;;4980950;28;20037;-85
2021/01/02 04:19:08;;;;;;;20.00;12.90;;;5.50;84.90;;;;;;4994920;28;20498;-85
2021/01/02 04:21:37;;;;;;;26.40;16.40;;;5.50;85.10;;;;;;4976532;28;20026;-85
2021/01/02 04:24:04;;;;;;;31.55;20.45;;;5.40;85.00;;;;;;4982458;28;20030;-86
2021/01/02 04:26:30;;;;;;;22.40;14.32;;;5.50;85.20;;;;;;4981962;28;20015;-84
2021/01/02 04:28:57;;;;;;;28.95;19.08;;;5.40;85.10;;;;;;4974011;28;20101;-85
2021/01/02 04:31:36;;;;;;;17.67;11.05;;;5.30;85.10;;;;;;4980208;28;20031;-85
2021/01/02 04:34:03;;;;;;;19.33;13.13;;;5.40;85.30;;;;;;4983576;28;20391;-85
2021/01/02 04:36:28;;;;;;;36.42;23.70;;;5.40;85.30;;;;;;4986166;28;20132;-85
2021/01/02 04:38:54;;;;;;;22.10;14.75;;;5.40;85.10;;;;;;4988236;28;20539;-84
2021/01/02 04:41:20;;;;;;;17.60;11.35;;;5.30;85.20;;;;;;4986192;28;20055;-85
2021/01/02 04:43:50;;;;;;;18.83;12.13;;;5.30;85.20;;;;;;4971983;28;20095;-85
2021/01/02 04:46:16;;;;;;;19.40;12.43;;;5.40;85.20;;;;;;4980729;28;20041;-86
2021/01/02 04:48:48;;;;;;;15.15;10.48;;;5.40;85.20;;;;;;4976162;28;20551;-85
2021/01/02 04:51:14;;;;;;;14.23;9.38;;;5.40;85.20;;;;;;4973720;28;20022;-85
2021/01/02 04:53:40;;;;;;;15.43;10.60;;;5.50;85.20;;;;;;4981981;28;20544;-86
2021/01/02 04:56:07;;;;;;;19.15;12.48;;;5.50;85.10;;;;;;4975977;28;20117;-86
2021/01/02 04:58:40;;;;;;;28.85;18.77;;;5.50;85.80;;;;;;4974894;28;20023;-85
2021/01/02 05:01:06;;;;;;;22.95;15.07;;;5.50;85.10;;;;;;4970198;28;20027;-86
2021/01/02 05:03:36;;;;;;;19.65;12.70;;;5.50;85.00;;;;;;4973480;28;20031;-86
2021/01/02 05:06:02;;;;;;;19.92;13.40;;;5.50;85.10;;;;;;4989254;28;20073;-85
2021/01/02 05:08:31;;;;;;;22.52;14.77;;;5.50;85.00;;;;;;4987409;28;20038;-87
2021/01/02 05:11:00;;;;;;;20.27;12.30;;;5.50;85.00;;;;;;4989636;28;20127;-85
2021/01/02 05:13:34;;;;;;;15.63;9.95;;;5.40;85.00;;;;;;5000479;28;20050;-85
2021/01/02 05:16:16;;;;;;;16.38;9.88;;;5.50;85.10;;;;;;4989997;28;20416;-85
2021/01/02 05:19:02;;;;;;;18.77;12.17;;;5.50;85.10;;;;;;4974664;28;20034;-86
2021/01/02 05:21:29;;;;;;;15.15;9.65;;;5.50;85.00;;;;;;4976592;28;20304;-84
2021/01/02 05:24:14;;;;;;;17.92;11.48;;;5.50;85.00;;;;;;4974638;28;20041;-84
2021/01/02 05:26:44;;;;;;;17.08;11.18;;;5.50;85.10;;;;;;4972664;28;20063;-84
2021/01/02 05:29:13;;;;;;;14.40;9.85;;;5.40;85.00;;;;;;4984970;28;20022;-84
2021/01/02 05:31:39;;;;;;;19.80;12.85;;;5.30;85.00;;;;;;4969068;28;20065;-84
2021/01/02 05:34:09;;;;;;;21.08;13.48;;;5.40;85.10;;;;;;4972565;28;20317;-86
2021/01/02 05:36:35;;;;;;;16.40;11.10;;;5.30;85.10;;;;;;4984790;28;20172;-84
2021/01/02 05:39:00;;;;;;;13.00;8.65;;;5.40;85.20;;;;;;4973622;28;20118;-84
2021/01/02 05:41:27;;;;;;;25.23;17.63;;;5.30;85.10;;;;;;4979525;28;20038;-84
2021/01/02 05:44:10;;;;;;;35.50;24.83;;;5.30;85.00;;;;;;4974431;28;20033;-84
2021/01/02 05:46:43;;;;;;;20.95;13.80;;;5.20;84.80;;;;;;4971787;28;20023;-86
2021/01/02 05:49:34;;;;;;;16.45;11.50;;;5.10;84.90;;;;;;4977126;28;20134;-86
2021/01/02 05:52:08;;;;;;;25.67;17.17;;;5.10;85.10;;;;;;4980558;28;20089;-86
2021/01/02 05:54:40;;;;;;;22.67;14.95;;;5.20;85.10;;;;;;4987970;28;20119;-84
2021/01/02 05:57:06;;;;;;;24.80;15.13;;;5.20;85.20;;;;;;4989199;28;20069;-85
2021/01/02 05:59:38;;;;;;;21.00;12.50;;;5.20;85.10;;;;;;4986993;28;20048;-86
2021/01/02 06:02:23;;;;;;;24.88;16.45;;;5.20;85.10;;;;;;4973450;28;20101;-85
2021/01/02 06:05:00;;;;;;;19.52;12.70;;;5.10;85.10;;;;;;4971736;28;20039;-84
2021/01/02 06:07:28;;;;;;;21.33;14.70;;;5.20;85.20;;;;;;4982321;28;20109;-85
2021/01/02 06:09:56;;;;;;;30.15;19.58;;;5.20;85.10;;;;;;4975109;28;20030;-86
2021/01/02 06:12:24;;;;;;;22.05;14.35;;;5.20;85.00;;;;;;4969527;28;20432;-86
2021/01/02 06:14:52;;;;;;;20.98;13.68;;;5.20;85.10;;;;;;4985731;28;20468;-85
2021/01/02 06:17:26;;;;;;;31.90;22.27;;;5.20;85.10;;;;;;4971592;28;20053;-86
2021/01/02 06:19:52;;;;;;;21.83;13.80;;;5.10;85.00;;;;;;4975269;28;20038;-85
2021/01/02 06:22:18;;;;;;;35.00;22.05;;;5.10;85.10;;;;;;4984687;28;20027;-85
2021/01/02 06:24:43;;;;;;;22.25;14.18;;;5.10;85.10;;;;;;4974388;28;20061;-85
2021/01/02 06:27:09;;;;;;;28.50;18.35;;;5.00;85.10;;;;;;4972285;28;20468;-86
2021/01/02 06:29:35;;;;;;;21.52;13.45;;;5.00;85.10;;;;;;4970756;28;20053;-85
2021/01/02 06:32:01;;;;;;;21.85;14.02;;;5.00;85.10;;;;;;4970033;28;20352;-85
2021/01/02 06:34:27;;;;;;;21.23;13.02;;;5.00;85.20;;;;;;4971156;28;20034;-84
2021/01/02 06:36:56;;;;;;;26.17;16.70;;;5.00;85.20;;;;;;4983022;28;20058;-87
2021/01/02 06:39:24;;;;;;;40.72;25.40;;;5.00;85.20;;;;;;4989826;28;20061;-86
2021/01/02 06:41:52;;;;;;;25.75;16.15;;;4.90;85.00;;;;;;4988475;28;20058;-86
2021/01/02 06:44:37;;;;;;;29.38;18.52;;;4.90;85.20;;;;;;4993704;28;20091;-84
2021/01/02 06:47:22;;;;;;;15.98;9.82;;;4.90;85.30;;;;;;4993476;28;20023;-85
2021/01/02 06:49:51;;;;;;;26.98;16.58;;;4.90;85.40;;;;;;4983917;28;20633;-86
2021/01/02 06:52:29;;;;;;;26.20;16.05;;;4.90;85.30;;;;;;4987185;28;20468;-86
2021/01/02 06:55:18;;;;;;;23.73;13.98;;;4.90;85.30;;;;;;4974695;28;20200;-85
2021/01/02 06:57:44;;;;;;;23.77;14.90;;;4.90;85.90;;;;;;4973705;28;20149;-84
2021/01/02 07:00:25;;;;;;;25.45;14.30;;;4.90;85.30;;;;;;4990320;28;20117;-85
2021/01/02 07:02:55;;;;;;;27.80;16.70;;;5.00;85.40;;;;;;4981061;28;20038;-85
2021/01/02 07:05:44;;;;;;;27.33;16.95;;;4.90;85.30;;;;;;4988453;28;20120;-84
2021/01/02 07:08:49;;;;;;;18.30;11.95;;;4.90;85.30;;;;;;4973241;28;20058;-85
2021/01/02 07:11:40;;;;;;;14.30;8.40;;;4.90;85.50;;;;;;4975425;28;20035;-85
2021/01/02 07:14:08;;;;;;;20.40;11.60;;;4.90;85.50;;;;;;4975634;28;20085;-85
2021/01/02 07:16:42;;;;;;;27.83;17.13;;;4.90;85.50;;;;;;4974131;28;20508;-84
2021/01/02 07:19:31;;;;;;;20.17;12.02;;;4.90;85.50;;;;;;4990757;28;20083;-85
2021/01/02 07:21:59;;;;;;;21.02;12.45;;;4.90;85.60;;;;;;4982111;28;20033;-84
2021/01/02 07:24:32;;;;;;;14.77;9.35;;;5.00;85.50;;;;;;4980249;28;20022;-85
2021/01/02 07:27:03;;;;;;;21.23;13.18;;;5.00;85.40;;;;;;4984405;28;20040;-85
2021/01/02 07:29:33;;;;;;;25.60;15.23;;;5.00;85.40;;;;;;4979947;28;20026;-85
2021/01/02 07:32:13;;;;;;;21.67;13.95;;;5.10;85.50;;;;;;4986726;28;20034;-85
2021/01/02 07:34:43;;;;;;;23.75;14.60;;;5.00;85.40;;;;;;4974761;28;20477;-85
2021/01/02 07:37:14;;;;;;;25.15;13.95;;;5.10;85.40;;;;;;4989098;28;20488;-86
2021/01/02 07:39:40;;;;;;;24.08;13.80;;;5.10;85.50;;;;;;4991567;28;20030;-85
2021/01/02 07:42:11;;;;;;;24.85;14.85;;;5.10;85.50;;;;;;4986629;28;20115;-85
2021/01/02 07:44:38;;;;;;;21.73;12.60;;;5.10;85.50;;;;;;4985014;28;20036;-85
2021/01/02 07:47:05;;;;;;;24.30;14.18;;;5.10;85.50;;;;;;4991008;28;20027;-85
2021/01/02 07:49:31;;;;;;;18.65;11.20;;;5.10;85.50;;;;;;4992141;28;20419;-85
2021/01/02 07:51:56;;;;;;;27.20;15.48;;;5.10;86.10;;;;;;4982614;28;20110;-85
2021/01/02 07:54:32;;;;;;;22.85;13.60;;;5.20;85.50;;;;;;4972253;28;20461;-85
2021/01/02 07:56:58;;;;;;;27.70;15.95;;;5.20;85.50;;;;;;4985932;28;20122;-85
2021/01/02 07:59:31;;;;;;;23.13;13.10;;;5.20;85.40;;;;;;4988915;28;20627;-84
2021/01/02 08:01:57;;;;;;;;;;;5.20;85.50;;;;;;4972957;28;20026;-85
2021/01/02 08:04:24;;;;;;;23.77;13.18;;;5.20;85.40;;;;;;4972107;28;19930;-85
2021/01/02 08:06:52;;;;;;;22.20;11.73;;;5.20;85.50;;;;;;4983145;28;20427;-84
2021/01/02 08:09:20;;;;;;;20.70;12.43;;;5.20;85.60;;;;;;4972411;28;20114;-83
2021/01/02 08:11:59;;;;;;;35.97;16.42;;;5.20;85.60;;;;;;4976349;28;20034;-85
2021/01/02 08:14:27;;;;;;;21.25;10.52;;;5.10;85.60;;;;;;4982332;28;20034;-84
2021/01/02 08:17:07;;;;;;;27.92;14.35;;;5.20;85.60;;;;;;4992682;28;20038;-85
2021/01/02 08:19:46;;;;;;;42.97;13.48;;;5.20;85.60;;;;;;4974104;28;20056;-84
2021/01/02 08:22:26;;;;;;;23.45;13.20;;;5.20;85.60;;;;;;4985273;28;20180;-84
2021/01/02 08:25:00;;;;;;;24.02;12.00;;;5.20;85.50;;;;;;4970272;28;20022;-86
2021/01/02 08:27:29;;;;;;;33.90;14.07;;;5.20;85.60;;;;;;4972438;28;20054;-85
2021/01/02 08:29:55;;;;;;;18.08;10.63;;;5.20;85.60;;;;;;4977281;28;20034;-83
2021/01/02 08:32:23;;;;;;;27.60;13.60;;;5.20;85.60;;;;;;4983083;28;20515;-83
2021/01/02 08:34:49;;;;;;;17.70;11.02;;;5.20;86.20;;;;;;4982376;28;20032;-83
2021/01/02 08:37:17;;;;;;;28.35;12.75;;;5.20;85.60;;;;;;4991707;28;20708;-83
2021/01/02 08:39:43;;;;;;;42.90;11.02;;;5.10;85.60;;;;;;4990097;28;20026;-83
2021/01/02 08:42:09;;;;;;;61.45;18.73;;;5.20;85.60;;;;;;4983917;28;20030;-83
2021/01/02 08:44:46;;;;;;;21.30;12.68;;;5.10;85.50;;;;;;4989223;28;20037;-83
2021/01/02 08:47:24;;;;;;;18.70;10.65;;;5.00;85.60;;;;;;4987172;28;20033;-84
2021/01/02 08:49:50;;;;;;;53.75;11.70;;;5.00;85.70;;;;;;4989761;28;20525;-83
2021/01/02 08:52:23;;;;;;;37.83;10.55;;;5.10;85.80;;;;;;5000668;28;20138;-83
2021/01/02 08:55:10;;;;;;;29.48;13.52;;;5.10;85.80;;;;;;4987746;28;20392;-83
2021/01/02 08:57:45;;;;;;;24.85;13.18;;;5.10;85.70;;;;;;4987398;28;20432;-81
2021/01/02 09:00:15;;;;;;;24.77;13.35;;;5.10;85.70;;;;;;4992074;28;20045;-84
2021/01/02 09:02:48;;;;;;;20.73;11.68;;;5.10;85.70;;;;;;4988427;28;20030;-84
2021/01/02 09:05:16;;;;;;;66.53;17.10;;;5.10;85.70;;;;;;4985582;28;20081;-84
2021/01/02 09:07:59;;;;;;;22.77;12.45;;;5.10;85.80;;;;;;4986132;28;20716;-85
2021/01/02 09:10:26;;;;;;;;;;;5.10;85.80;;;;;;4988226;28;20109;-84
2021/01/02 09:13:03;;;;;;;18.95;10.45;;;5.10;85.70;;;;;;4986368;28;19906;-84
2021/01/02 09:15:44;;;;;;;54.22;13.75;;;5.10;85.80;;;;;;4987954;28;20036;-83
2021/01/02 09:18:12;;;;;;;54.20;26.17;;;5.20;85.80;;;;;;4982110;28;20053;-84
2021/01/02 09:20:38;;;;;;;24.70;13.48;;;5.10;85.60;;;;;;4977431;28;20018;-85
2021/01/02 09:23:08;;;;;;;37.58;13.95;;;5.10;85.70;;;;;;4986981;28;20464;-83
2021/01/02 09:25:34;;;;;;;42.15;19.40;;;5.10;85.70;;;;;;4983561;28;20026;-83
2021/01/02 09:28:14;;;;;;;22.98;13.30;;;5.10;85.70;;;;;;4987044;28;20046;-83
2021/01/02 09:30:41;;;;;;;20.88;11.45;;;5.00;85.70;;;;;;4985291;28;20488;-82
2021/01/02 09:33:06;;;;;;;37.85;17.45;;;5.00;85.80;;;;;;4979463;28;20027;-83
2021/01/02 09:35:32;;;;;;;28.35;14.73;;;5.00;85.70;;;;;;4984088;28;20037;-83
2021/01/02 09:37:57;;;;;;;25.48;14.77;;;5.00;85.90;;;;;;4986226;28;20035;-84
2021/01/02 09:40:24;;;;;;;22.13;12.00;;;5.10;85.80;;;;;;4987202;28;20026;-84
2021/01/02 09:42:49;;;;;;;26.33;14.20;;;5.10;85.80;;;;;;4985315;28;20030;-84
2021/01/02 09:45:15;;;;;;;21.88;11.95;;;5.10;85.70;;;;;;4994599;28;20456;-90
2021/01/02 09:47:41;;;;;;;22.92;11.93;;;5.10;85.70;;;;;;5010196;28;20249;-90
2021/01/02 09:50:07;;;;;;;22.90;11.70;;;5.20;85.70;;;;;;5008336;28;20030;-89
2021/01/02 09:52:33;;;;;;;21.67;11.85;;;5.20;85.60;;;;;;5002336;28;20049;-89
2021/01/02 09:54:59;;;;;;;14.50;8.45;;;5.20;85.70;;;;;;5001607;28;20085;-87
2021/01/02 09:57:24;;;;;;;23.10;12.35;;;5.20;85.70;;;;;;5004034;28;20025;-89
2021/01/02 09:59:52;;;;;;;16.35;8.13;;;5.20;85.70;;;;;;5001885;28;20014;-91
2021/01/02 10:02:21;;;;;;;26.90;14.95;;;5.20;85.80;;;;;;4986710;28;20031;-88
2021/01/02 10:10:11;;;;;;;24.70;14.55;;;5.10;85.80;;;;;;5038100;23;20463;-83
2021/01/02 10:12:39;;;;;;;19.95;10.82;;;5.10;85.80;;;;;;4976152;28;20027;-84
2021/01/02 10:15:09;;;;;;;21.25;11.55;;;5.10;85.80;;;;;;4974156;28;20475;-85
2021/01/02 10:17:35;;;;;;;16.55;9.60;;;5.10;85.80;;;;;;4974241;28;20109;-84
2021/01/02 10:20:02;;;;;;;18.95;10.20;;;5.20;85.80;;;;;;4975651;28;20062;-85
2021/01/02 10:22:31;;;;;;;21.15;12.45;;;5.40;85.80;;;;;;4968383;28;20423;-85
2021/01/02 10:24:58;;;;;;;16.35;8.85;;;5.30;85.70;;;;;;4969224;28;20031;-86
2021/01/02 10:27:36;;;;;;;23.50;11.73;;;5.30;85.70;;;;;;4968199;28;20151;-84
2021/01/02 10:30:06;;;;;;;22.65;11.90;;;5.30;85.60;;;;;;4970445;28;20051;-87
2021/01/02 10:32:40;;;;;;;26.08;14.50;;;5.30;85.60;;;;;;4969072;28;20049;-86
2021/01/02 10:38:00;;;;;;;31.67;16.33;;;5.20;85.50;;;;;;4970600;28;20053;-84
2021/01/02 10:40:25;;;;;;;38.90;19.30;;;5.10;85.60;;;;;;4970869;28;20576;-87
2021/01/02 10:42:51;;;;;;;30.38;15.30;;;5.10;85.70;;;;;;4972160;28;20034;-87
2021/01/02 10:45:17;;;;;;;26.77;13.90;;;5.00;85.70;;;;;;4970441;28;20027;-86
2021/01/02 10:47:45;;;;;;;39.55;21.55;;;5.10;85.80;;;;;;4967591;28;20038;-84
2021/01/02 10:50:14;;;;;;;34.40;17.98;;;5.00;85.80;;;;;;4970011;28;20023;-85
2021/01/02 10:52:39;;;;;;;20.42;10.93;;;4.80;85.80;;;;;;4966500;28;20122;-89
2021/01/02 10:55:06;;;;;;;42.90;19.20;;;5.00;85.90;;;;;;4978908;28;20110;-88
2021/01/02 10:57:38;;;;;;;33.33;17.25;;;5.00;86.00;;;;;;4983343;28;20046;-87
2021/01/02 11:00:08;;;;;;;;;;;4.90;86.00;;;;;;4982475;28;20046;-88
2021/01/02 11:02:36;;;;;;;30.52;16.23;;;4.90;86.00;;;;;;4989836;28;19912;-87
2021/01/02 11:05:02;;;;;;;30.80;15.32;;;4.90;86.20;;;;;;4987231;28;20043;-86
2021/01/02 11:07:30;;;;;;;41.88;23.25;;;4.90;86.20;;;;;;4975181;28;20030;-87
2021/01/02 11:10:01;;;;;;;45.78;23.88;;;5.00;86.20;;;;;;4975999;28;20026;-87
2021/01/02 11:12:27;;;;;;;30.38;15.57;;;4.90;86.20;;;;;;4982421;28;20054;-87
2021/01/02 11:14:53;;;;;;;29.67;15.35;;;5.00;86.30;;;;;;4981986;28;20035;-88
2021/01/02 11:17:31;;;;;;;;;;;;;;;;;;;;;
2021/01/02 11:20:12;;;;;;;;;;;;;;;;;;;;;
2021/01/02 11:22:40;;;;;;;20.23;10.93;;;5.10;86.20;;;;;;4978349;28;20550;-87
2021/01/02 11:25:15;;;;;;;31.63;16.35;;;5.10;86.10;;;;;;4977774;28;20070;-86
2021/01/02 11:27:50;;;;;;;30.38;15.40;;;5.10;86.10;;;;;;4972204;28;20023;-86
2021/01/02 11:30:57;;;;;;;27.75;14.68;;;5.10;86.20;;;;;;4971488;28;20421;-86
2021/01/02 11:33:22;;;;;;;23.13;12.25;;;5.10;86.20;;;;;;4970071;28;20114;-88
2021/01/02 11:35:49;;;;;;;24.77;13.43;;;5.20;86.20;;;;;;4973850;28;20118;-87
2021/01/02 11:38:23;;;;;;;25.70;12.60;;;5.30;86.20;;;;;;4967296;28;20027;-86
2021/01/02 11:40:52;;;;;;;24.67;11.77;;;5.30;86.20;;;;;;4963686;28;20034;-87
2021/01/02 11:43:18;;;;;;;19.80;10.93;;;5.40;86.10;;;;;;4953973;28;20036;-86
2021/01/02 11:46:06;;;;;;;20.13;10.82;;;5.40;85.90;;;;;;4966323;28;20030;-86
2021/01/02 11:48:31;;;;;;;18.77;10.50;;;5.40;85.90;;;;;;4963882;28;20034;-85
2021/01/02 11:50:57;;;;;;;26.35;13.50;;;5.50;85.90;;;;;;4965611;28;20476;-86
2021/01/02 11:53:23;;;;;;;20.08;9.25;;;5.50;85.70;;;;;;4973566;28;20026;-87
2021/01/02 11:55:51;;;;;;;20.15;10.85;;;5.70;85.70;;;;;;4969258;28;20038;-86
2021/01/02 11:58:28;;;;;;;;;;;;;;;;;;;;;
2021/01/02 12:01:12;;;;;;;;;;;;;;;;;;;;;
2021/01/02 12:03:38;;;;;;;20.38;9.98;;;5.60;85.60;;;;;;4964917;28;20026;-86
2021/01/02 12:06:04;;;;;;;19.85;11.07;;;5.70;85.60;;;;;;4972829;28;20121;-86
2021/01/02 12:08:29;;;;;;;15.77;8.38;;;5.70;85.50;;;;;;4961476;28;20026;-85
2021/01/02 12:10:55;;;;;;;13.73;7.70;;;5.70;85.50;;;;;;4960705;28;20452;-86
2021/01/02 12:13:23;;;;;;;18.58;9.68;;;5.80;85.60;;;;;;4969058;28;20615;-86
2021/01/02 12:15:52;;;;;;;19.55;10.10;;;5.70;85.50;;;;;;4974925;28;20037;-86
2021/01/02 12:18:22;;;;;;;29.85;16.17;;;5.90;85.60;;;;;;4971878;28;20038;-86
2021/01/02 12:20:49;;;;;;;24.83;12.55;;;5.70;85.40;;;;;;4967682;28;20163;-86
2021/01/02 12:23:35;;;;;;;26.67;13.85;;;5.60;85.40;;;;;;4963502;28;20027;-87
2021/01/02 12:26:03;;;;;;;21.30;10.68;;;5.60;85.40;;;;;;4963350;28;20512;-87
2021/01/02 12:28:29;;;;;;;21.85;9.82;;;5.70;85.40;;;;;;4969457;28;20380;-86
2021/01/02 12:30:57;;;;;;;15.20;8.68;;;5.60;85.40;;;;;;4964226;28;20045;-87
2021/01/02 12:33:30;;;;;;;21.55;11.88;;;5.70;85.40;;;;;;4970079;28;20512;-88
2021/01/02 12:35:57;;;;;;;19.17;9.70;;;5.50;85.20;;;;;;4963109;28;20046;-87
2021/01/02 12:38:24;;;;;;;17.15;8.45;;;5.70;85.40;;;;;;4968596;28;20031;-86
2021/01/02 12:40:51;;;;;;;18.45;9.23;;;5.70;85.30;;;;;;4963786;28;20035;-86
2021/01/02 12:43:38;;;;;;;32.20;16.65;;;5.70;85.30;;;;;;4959559;28;20543;-86
2021/01/02 12:46:03;;;;;;;14.30;7.35;;;5.80;85.20;;;;;;4985315;28;20029;-87
2021/01/02 12:48:29;;;;;;;23.13;10.57;;;5.70;85.20;;;;;;4977970;28;20058;-88
2021/01/02 12:50:55;;;;;;;24.40;13.07;;;5.60;85.20;;;;;;4967849;28;20026;-86
2021/01/02 12:53:21;;;;;;;26.17;11.88;;;5.60;85.30;;;;;;4970387;28;20025;-86
2021/01/02 12:55:47;;;;;;;26.08;14.23;;;5.60;85.30;;;;;;4965108;28;20043;-86
2021/01/02 12:58:13;;;;;;;23.20;12.35;;;5.50;85.10;;;;;;4970599;28;20568;-87
2021/01/02 13:00:38;;;;;;;22.52;11.43;;;5.40;85.20;;;;;;4968554;28;20043;-87
2021/01/02 13:03:17;;;;;;;;;;;;;;;;;;;;;
2021/01/02 13:05:44;;;;;;;18.75;9.50;;;5.50;85.50;;;;;;4963267;28;20057;-87
2021/01/02 13:08:09;;;;;;;21.58;10.10;;;5.50;85.40;;;;;;4984011;28;20027;-87
2021/01/02 13:10:35;;;;;;;17.88;9.40;;;5.60;85.50;;;;;;4968731;28;20114;-87
2021/01/02 13:13:02;;;;;;;19.13;9.43;;;5.60;85.50;;;;;;4970783;28;20089;-87
2021/01/02 13:15:28;;;;;;;13.32;7.28;;;5.70;85.40;;;;;;4970166;28;20101;-87
2021/01/02 13:17:54;;;;;;;15.63;8.55;;;5.60;85.40;;;;;;4967758;28;20093;-88